Terminal Aerodrome Forecast
Issued by NWS

Current Version | Previous Version | Graphics & Text | Print | Product List | Glossary On
Versions: 1 2 3 4 5 6 7 8 9 10 11 12 13 14 15 16 17 18
000
FTUS41 KRNK 261722
TAFLWB
TAF
KLWB 261722Z 2618/2718 VRB03KT P6SM SCT040
     FM270000 00000KT P6SM SCT100
      TEMPO 2705/2708 5SM BR SCT001
     FM270800 00000KT 1/4SM FG OVC001
     FM271330 VRB03KT P6SM SCT035=

USA.gov is the U.S. government's official web portal to all federal, state and local government web resources and services.